createdAt,value
2022-10-31T00:01:32.889Z,63.58
2022-10-31T00:04:01.476Z,63.86
2022-10-31T00:06:30.733Z,63.92
2022-10-31T00:09:01.691Z,64.26
2022-10-31T00:11:31.035Z,64.10
2022-10-31T00:14:01.189Z,64.14
2022-10-31T00:16:30.844Z,63.76
2022-10-31T00:19:01.320Z,63.48
2022-10-31T00:21:30.162Z,62.91
2022-10-31T00:23:59.434Z,62.51
2022-10-31T00:26:29.853Z,62.75
2022-10-31T00:28:59.208Z,62.57
2022-10-31T00:31:31.304Z,62.31
2022-10-31T00:34:00.277Z,62.87
2022-10-31T00:36:29.155Z,62.74
2022-10-31T00:38:57.615Z,62.64
2022-10-31T00:41:26.438Z,62.89
2022-10-31T00:43:54.847Z,63.36
2022-10-31T00:46:23.672Z,63.24
2022-10-31T00:48:54.329Z,63.59
2022-10-31T00:51:23.276Z,63.30
2022-10-31T00:53:51.639Z,63.39
2022-10-31T00:56:20.260Z,63.27
2022-10-31T00:58:48.644Z,63.46
2022-10-31T01:01:17.683Z,63.59
2022-10-31T01:03:46.962Z,63.38
2022-10-31T01:06:17.027Z,63.73
2022-10-31T01:08:45.575Z,63.77
2022-10-31T01:11:19.761Z,63.79
2022-10-31T01:13:49.192Z,63.84
2022-10-31T01:16:21.402Z,63.54
2022-10-31T01:18:52.281Z,63.80
2022-10-31T01:21:25.791Z,63.61
2022-10-31T01:23:56.211Z,63.65
2022-10-31T01:26:26.625Z,63.97
2022-10-31T01:28:57.658Z,64.23
2022-10-31T01:31:28.875Z,64.22
2022-10-31T01:33:57.626Z,63.98
2022-10-31T01:36:29.478Z,64.13
2022-10-31T01:38:59.484Z,63.57
2022-10-31T01:41:30.279Z,63.50
2022-10-31T01:44:00.833Z,63.27
2022-10-31T01:46:33.260Z,63.48
2022-10-31T01:49:04.163Z,64.05
2022-10-31T01:51:36.991Z,63.31
2022-10-31T01:54:10.107Z,64.22
2022-10-31T01:56:43.403Z,64.58
2022-10-31T01:59:18.482Z,64.52
2022-10-31T02:01:48.615Z,64.16
2022-10-31T02:04:17.986Z,63.96
2022-10-31T02:06:53.318Z,64.16
2022-10-31T02:09:24.421Z,64.42
2022-10-31T02:11:56.599Z,64.43
2022-10-31T02:14:27.561Z,64.06
2022-10-31T02:16:56.813Z,64.11
2022-10-31T02:19:36.336Z,63.48
2022-10-31T02:22:16.491Z,63.66
2022-10-31T02:25:01.690Z,63.08
2022-10-31T02:27:58.985Z,62.90
2022-10-31T02:30:39.607Z,63.52
2022-10-31T02:33:22.985Z,63.33
2022-10-31T02:36:02.607Z,62.99
2022-10-31T02:38:44.060Z,63.04
2022-10-31T02:41:25.587Z,63.36
2022-10-31T02:44:05.392Z,63.23
2022-10-31T02:46:40.265Z,63.07
2022-10-31T02:49:18.655Z,64.12
2022-10-31T02:51:48.056Z,63.76
2022-10-31T02:54:24.511Z,63.89
2022-10-31T02:57:00.777Z,63.70
2022-10-31T02:59:32.383Z,63.90
2022-10-31T03:02:16.134Z,63.44
2022-10-31T03:05:07.074Z,63.14
2022-10-31T03:07:43.384Z,62.81
2022-10-31T03:10:22.328Z,62.77
2022-10-31T03:13:02.260Z,63.02
2022-10-31T03:15:34.809Z,62.89
2022-10-31T03:18:08.789Z,62.99
2022-10-31T03:20:43.237Z,62.90
2022-10-31T03:23:15.982Z,62.92
2022-10-31T03:25:47.239Z,62.48
2022-10-31T03:28:21.001Z,62.64
2022-10-31T03:30:52.749Z,63.98
2022-10-31T03:33:28.793Z,63.91
2022-10-31T03:36:05.015Z,64.06
2022-10-31T03:38:35.962Z,64.33
2022-10-31T03:41:11.773Z,64.05
2022-10-31T03:43:48.477Z,64.14
2022-10-31T03:46:17.216Z,64.29
2022-10-31T03:48:45.959Z,63.81
2022-10-31T03:51:22.074Z,64.02
2022-10-31T03:53:58.651Z,63.38
2022-10-31T03:56:36.723Z,63.71
2022-10-31T03:59:10.212Z,63.63
2022-10-31T04:01:45.717Z,63.94
2022-10-31T04:04:15.583Z,63.79
2022-10-31T04:06:48.599Z,63.19
2022-10-31T04:09:18.606Z,62.97
2022-10-31T04:11:50.874Z,63.23
2022-10-31T04:14:50.033Z,63.19
2022-10-31T04:17:22.165Z,63.08
2022-10-31T04:19:51.043Z,63.35
2022-10-31T04:22:21.896Z,63.00
2022-10-31T04:24:50.226Z,63.14
2022-10-31T04:27:20.246Z,63.42
2022-10-31T04:29:50.850Z,63.10
2022-10-31T04:32:20.932Z,63.14
2022-10-31T04:34:49.367Z,63.13
2022-10-31T04:37:17.971Z,62.97
2022-10-31T04:39:48.136Z,63.35
2022-10-31T04:42:37.035Z,62.99
2022-10-31T04:45:08.419Z,63.08
2022-10-31T04:47:38.390Z,63.37
2022-10-31T04:50:08.269Z,63.39
2022-10-31T04:52:41.223Z,63.49
2022-10-31T04:55:13.228Z,63.54
2022-10-31T04:58:01.089Z,62.93
2022-10-31T05:00:29.992Z,63.23
2022-10-31T05:03:00.785Z,63.04
2022-10-31T05:05:32.177Z,63.24
2022-10-31T05:08:03.266Z,63.06
2022-10-31T05:10:34.811Z,63.77
2022-10-31T05:13:06.432Z,63.63
2022-10-31T05:15:51.328Z,64.08
2022-10-31T05:18:39.228Z,63.67
2022-10-31T05:21:26.226Z,63.57
2022-10-31T05:23:59.656Z,63.99
2022-10-31T05:26:30.046Z,63.91
2022-10-31T05:28:58.834Z,64.23
2022-10-31T05:31:27.735Z,63.74
2022-10-31T05:33:56.717Z,63.80
2022-10-31T05:36:43.683Z,63.69
2022-10-31T05:39:15.286Z,64.01
2022-10-31T05:41:49.111Z,63.69
2022-10-31T05:44:22.683Z,64.04
2022-10-31T05:47:09.434Z,64.03
2022-10-31T05:49:58.262Z,63.69
2022-10-31T05:52:57.589Z,63.72
2022-10-31T05:55:33.834Z,64.01
2022-10-31T05:58:20.331Z,63.71
2022-10-31T06:01:00.905Z,63.96
2022-10-31T06:03:29.310Z,64.01
2022-10-31T06:05:59.498Z,63.98
2022-10-31T06:08:48.172Z,64.00
2022-10-31T06:11:21.548Z,63.79
2022-10-31T06:14:03.991Z,63.43
2022-10-31T06:16:54.049Z,63.55
2022-10-31T06:19:40.356Z,63.64
2022-10-31T06:22:13.323Z,63.24
2022-10-31T06:24:41.915Z,63.20
2022-10-31T06:27:23.519Z,63.15
2022-10-31T06:29:53.768Z,63.17
2022-10-31T06:32:34.092Z,63.14
2022-10-31T06:35:03.452Z,62.58
2022-10-31T06:37:32.164Z,62.82
2022-10-31T06:40:08.334Z,62.80
2022-10-31T06:43:01.362Z,62.25
2022-10-31T06:45:32.551Z,62.33
2022-10-31T06:48:21.972Z,61.96
2022-10-31T06:51:20.037Z,61.10
2022-10-31T06:53:51.704Z,62.04
2022-10-31T06:56:20.796Z,61.58
2022-10-31T06:58:53.714Z,62.03
2022-10-31T07:01:37.737Z,62.39
2022-10-31T07:04:06.760Z,61.80
2022-10-31T07:06:37.454Z,61.63
2022-10-31T07:09:06.843Z,61.29
2022-10-31T07:11:35.849Z,60.94
2022-10-31T07:14:04.856Z,60.50
2022-10-31T07:16:33.492Z,60.37
2022-10-31T07:19:08.548Z,60.03
2022-10-31T07:21:37.145Z,59.70
2022-10-31T07:24:07.325Z,60.02
2022-10-31T07:26:43.305Z,60.06
2022-10-31T07:29:12.792Z,59.98
2022-10-31T07:31:41.422Z,59.42
2022-10-31T07:34:20.201Z,59.90
2022-10-31T07:37:08.168Z,59.69
2022-10-31T07:39:39.065Z,59.66
2022-10-31T07:42:09.291Z,59.90
2022-10-31T07:44:41.046Z,59.65
2022-10-31T07:47:28.586Z,59.33
2022-10-31T07:50:12.327Z,63.79
2022-10-31T07:53:03.067Z,65.05
2022-10-31T07:55:46.648Z,65.69
2022-10-31T07:58:18.181Z,67.63
2022-10-31T08:00:49.397Z,68.93
2022-10-31T08:03:28.349Z,68.14
2022-10-31T08:06:14.158Z,68.32
2022-10-31T08:09:01.426Z,66.47
2022-10-31T08:11:30.373Z,65.44
2022-10-31T08:13:59.775Z,64.17
2022-10-31T08:16:29.697Z,63.00
2022-10-31T08:19:02.715Z,62.17
2022-10-31T08:21:35.930Z,61.78
2022-10-31T08:24:04.680Z,61.17
2022-10-31T08:26:34.901Z,60.57
2022-10-31T08:29:05.032Z,59.96
2022-10-31T08:31:40.327Z,59.05
2022-10-31T08:34:29.935Z,58.84
2022-10-31T08:37:20.931Z,58.45
2022-10-31T08:39:55.742Z,58.19
2022-10-31T08:42:25.393Z,57.63
2022-10-31T08:44:54.325Z,58.08
2022-10-31T08:47:24.987Z,58.93
2022-10-31T08:49:53.657Z,60.00
2022-10-31T08:53:03.553Z,60.59
2022-10-31T08:55:32.804Z,60.32
2022-10-31T08:58:08.059Z,59.47
2022-10-31T09:00:43.144Z,58.75
2022-10-31T09:03:23.892Z,58.37
2022-10-31T09:05:56.722Z,57.85
2022-10-31T09:08:27.471Z,57.93
2022-10-31T09:10:58.628Z,57.12
2022-10-31T09:13:47.417Z,56.27
2022-10-31T09:16:44.640Z,55.90
2022-10-31T09:19:20.430Z,55.50
2022-10-31T09:21:49.473Z,54.76
2022-10-31T09:24:19.853Z,54.84
2022-10-31T09:26:48.643Z,54.71
2022-10-31T09:29:21.512Z,54.59
2022-10-31T09:31:58.822Z,54.54
2022-10-31T09:34:30.672Z,54.23
2022-10-31T09:37:07.544Z,54.33
2022-10-31T09:39:39.083Z,54.58
2022-10-31T09:42:40.305Z,54.59
2022-10-31T09:45:24.472Z,54.74
2022-10-31T09:48:12.389Z,54.40
2022-10-31T09:51:05.944Z,53.91
2022-10-31T09:53:45.583Z,53.67
2022-10-31T09:56:23.809Z,53.06
2022-10-31T09:58:59.238Z,53.20
2022-10-31T10:01:41.327Z,52.98
2022-10-31T10:04:27.639Z,52.82
2022-10-31T10:07:07.990Z,52.70
2022-10-31T10:09:45.444Z,52.38
2022-10-31T10:13:03.575Z,52.23
2022-10-31T10:16:03.002Z,51.58
2022-10-31T10:18:45.949Z,51.83
2022-10-31T10:21:28.038Z,51.72
2022-10-31T10:24:12.174Z,51.27
2022-10-31T10:26:45.541Z,51.29
2022-10-31T10:29:31.263Z,51.06
2022-10-31T10:32:04.927Z,50.97
2022-10-31T10:34:39.664Z,50.57
2022-10-31T10:37:23.320Z,50.67
2022-10-31T10:39:57.879Z,50.55
2022-10-31T10:42:47.389Z,50.35
2022-10-31T10:45:38.236Z,49.87
2022-10-31T10:48:16.505Z,49.67
2022-10-31T10:50:51.172Z,49.01
2022-10-31T10:53:39.653Z,49.20
2022-10-31T10:56:17.731Z,49.12
2022-10-31T10:58:47.286Z,48.37
2022-10-31T11:01:18.163Z,48.46
2022-10-31T11:03:46.905Z,48.18
2022-10-31T11:06:23.234Z,47.95
2022-10-31T11:08:52.123Z,48.07
2022-10-31T11:11:32.906Z,47.60
2022-10-31T11:14:05.804Z,47.66
2022-10-31T11:16:41.380Z,47.41
2022-10-31T11:19:21.710Z,47.24
2022-10-31T11:21:52.850Z,46.78
2022-10-31T11:24:26.488Z,46.52
2022-10-31T11:27:15.666Z,46.46
2022-10-31T11:29:44.718Z,46.14
2022-10-31T11:32:24.377Z,46.10
2022-10-31T11:34:57.069Z,46.10
2022-10-31T11:37:28.604Z,46.25
2022-10-31T11:40:00.975Z,45.98
2022-10-31T11:42:37.053Z,45.91
2022-10-31T11:45:16.426Z,46.08
2022-10-31T11:47:52.958Z,45.98
2022-10-31T11:50:28.307Z,46.13
2022-10-31T11:52:57.661Z,45.76
2022-10-31T11:55:38.218Z,46.28
2022-10-31T11:58:20.011Z,46.23
2022-10-31T12:00:53.507Z,46.03
2022-10-31T12:03:36.106Z,45.70
2022-10-31T12:06:09.682Z,45.83
2022-10-31T12:08:40.709Z,45.46
2022-10-31T12:11:20.969Z,45.49
2022-10-31T12:14:03.991Z,45.49
2022-10-31T12:16:43.333Z,45.89
2022-10-31T12:19:24.288Z,45.49
2022-10-31T12:22:10.683Z,46.03
2022-10-31T12:24:54.989Z,45.96
2022-10-31T12:27:35.833Z,45.86
2022-10-31T12:30:16.049Z,45.87
2022-10-31T12:33:06.004Z,45.79
2022-10-31T12:35:46.847Z,46.09
2022-10-31T12:38:30.575Z,45.87
2022-10-31T12:41:14.979Z,45.76
2022-10-31T12:43:49.593Z,46.04
2022-10-31T12:46:28.104Z,45.88
2022-10-31T12:49:25.250Z,45.91
2022-10-31T12:52:12.664Z,46.16
2022-10-31T12:55:04.375Z,45.92
2022-10-31T12:57:38.439Z,46.49
2022-10-31T13:00:15.243Z,46.49
2022-10-31T13:02:52.252Z,47.03
2022-10-31T13:05:29.091Z,47.20
2022-10-31T13:08:08.172Z,47.45
2022-10-31T13:10:42.977Z,47.90
2022-10-31T13:13:20.226Z,48.10
2022-10-31T13:15:54.394Z,48.16
2022-10-31T13:18:30.668Z,48.61
2022-10-31T13:21:04.112Z,48.62
2022-10-31T13:23:57.468Z,48.60
2022-10-31T13:26:39.034Z,49.24
2022-10-31T13:29:18.542Z,49.65
2022-10-31T13:31:47.943Z,49.52
2022-10-31T13:34:29.848Z,49.58
2022-10-31T13:37:07.368Z,49.89
2022-10-31T13:39:56.969Z,49.74
2022-10-31T13:42:41.038Z,49.90
2022-10-31T13:45:15.450Z,50.04
2022-10-31T13:47:56.775Z,49.97
2022-10-31T13:50:30.159Z,50.19
2022-10-31T13:53:14.024Z,50.08
2022-10-31T13:55:46.435Z,50.27
2022-10-31T13:58:27.843Z,50.58
2022-10-31T14:01:18.760Z,50.25
2022-10-31T14:04:07.633Z,50.51
2022-10-31T14:06:47.662Z,50.61
2022-10-31T14:09:35.535Z,50.77
2022-10-31T14:12:12.965Z,50.88
2022-10-31T14:14:49.962Z,51.02
2022-10-31T14:17:23.583Z,51.04
2022-10-31T14:20:25.153Z,51.08
2022-10-31T14:22:54.617Z,51.42
2022-10-31T14:25:34.952Z,51.11
2022-10-31T14:28:22.357Z,51.28
2022-10-31T14:30:56.027Z,51.56
2022-10-31T14:33:31.058Z,51.65
2022-10-31T14:36:18.892Z,51.75
2022-10-31T14:39:01.929Z,51.96
2022-10-31T14:41:47.415Z,52.12
2022-10-31T14:45:10.542Z,52.13
2022-10-31T14:47:49.727Z,52.40
2022-10-31T14:50:36.612Z,52.43
2022-10-31T14:53:08.930Z,52.63
2022-10-31T14:55:45.699Z,52.97
2022-10-31T14:58:20.824Z,53.08
2022-10-31T15:00:54.385Z,53.17
2022-10-31T15:03:30.523Z,52.91
2022-10-31T15:06:04.549Z,53.46
2022-10-31T15:08:40.942Z,53.38
2022-10-31T15:11:14.848Z,53.75
2022-10-31T15:13:48.144Z,53.63
2022-10-31T15:16:22.805Z,54.19
2022-10-31T15:18:55.223Z,54.76
2022-10-31T15:21:26.706Z,54.79
2022-10-31T15:23:57.629Z,54.66
2022-10-31T15:26:32.301Z,55.07
2022-10-31T15:29:03.287Z,55.20
2022-10-31T15:31:34.162Z,55.35
2022-10-31T15:34:07.784Z,55.24
2022-10-31T15:36:38.748Z,55.21
2022-10-31T15:39:07.619Z,55.71
2022-10-31T15:41:41.216Z,55.92
2022-10-31T15:44:17.627Z,55.91
2022-10-31T15:46:56.213Z,56.48
2022-10-31T15:49:38.081Z,56.66
2022-10-31T15:52:17.220Z,56.35
2022-10-31T15:54:50.877Z,56.78
2022-10-31T15:57:20.290Z,56.54
2022-10-31T15:59:50.617Z,57.24
2022-10-31T16:02:24.845Z,57.09
2022-10-31T16:04:56.988Z,57.50
2022-10-31T16:07:26.846Z,57.42
2022-10-31T16:09:57.828Z,57.59
2022-10-31T16:12:31.751Z,57.56
2022-10-31T16:15:00.469Z,57.54
2022-10-31T16:17:31.122Z,57.70
2022-10-31T16:20:04.095Z,57.87
2022-10-31T16:22:36.517Z,58.12
2022-10-31T16:25:11.906Z,58.33
2022-10-31T16:27:42.192Z,58.24
2022-10-31T16:30:33.455Z,58.32
2022-10-31T16:33:04.242Z,58.80
2022-10-31T16:35:36.506Z,59.00
2022-10-31T16:38:09.194Z,59.08
2022-10-31T16:40:57.792Z,59.14
2022-10-31T16:43:27.977Z,59.47
2022-10-31T16:45:57.302Z,59.58
2022-10-31T16:48:29.251Z,59.51
2022-10-31T16:50:58.807Z,60.16
2022-10-31T16:53:28.554Z,60.01
2022-10-31T16:56:00.927Z,60.48
2022-10-31T16:58:34.875Z,60.24
2022-10-31T17:01:06.865Z,60.36
2022-10-31T17:03:38.005Z,60.84
2022-10-31T17:06:07.482Z,60.30
2022-10-31T17:08:36.655Z,60.96
2022-10-31T17:11:05.818Z,60.88
2022-10-31T17:13:36.107Z,61.26
2022-10-31T17:16:05.655Z,61.03
2022-10-31T17:18:34.712Z,61.21
2022-10-31T17:21:07.086Z,61.03
2022-10-31T17:23:36.038Z,61.58
2022-10-31T17:26:04.716Z,61.60
2022-10-31T17:28:33.583Z,60.91
2022-10-31T17:31:02.406Z,60.80
2022-10-31T17:33:31.429Z,60.83
2022-10-31T17:36:00.212Z,60.79
2022-10-31T17:38:31.043Z,60.95
2022-10-31T17:41:03.625Z,60.81
2022-10-31T17:43:35.212Z,60.77
2022-10-31T17:46:04.139Z,60.79
2022-10-31T17:48:35.279Z,60.98
2022-10-31T17:51:10.261Z,60.71
2022-10-31T17:53:43.376Z,60.61
2022-10-31T17:56:16.175Z,60.34
2022-10-31T17:58:47.826Z,60.22
2022-10-31T18:01:18.836Z,59.95
2022-10-31T18:03:48.070Z,59.81
2022-10-31T18:06:17.443Z,59.50
2022-10-31T18:08:47.814Z,59.32
2022-10-31T18:11:20.858Z,59.32
2022-10-31T18:13:55.290Z,59.30
2022-10-31T18:16:25.795Z,59.06
2022-10-31T18:18:59.449Z,59.34
2022-10-31T18:21:28.336Z,59.50
2022-10-31T18:24:00.391Z,59.55
2022-10-31T18:26:29.943Z,59.57
2022-10-31T18:28:59.686Z,59.83
2022-10-31T18:31:29.410Z,59.72
2022-10-31T18:33:58.558Z,59.78
2022-10-31T18:36:28.723Z,60.01
2022-10-31T18:39:00.320Z,60.01
2022-10-31T18:41:29.551Z,60.00
2022-10-31T18:44:00.561Z,60.02
2022-10-31T18:46:30.044Z,59.71
2022-10-31T18:48:59.544Z,60.09
2022-10-31T18:51:29.537Z,59.78
2022-10-31T18:54:02.200Z,59.94
2022-10-31T18:56:52.720Z,60.05
2022-10-31T18:59:22.238Z,59.86
2022-10-31T19:01:51.218Z,60.14
2022-10-31T19:04:20.376Z,60.19
2022-10-31T19:06:53.542Z,59.96
2022-10-31T19:09:30.005Z,60.29
2022-10-31T19:12:26.473Z,60.17
2022-10-31T19:14:57.702Z,60.13
2022-10-31T19:17:26.637Z,60.44
2022-10-31T19:19:56.493Z,60.77
2022-10-31T19:22:25.630Z,61.29
2022-10-31T19:24:56.495Z,61.18
2022-10-31T19:27:26.652Z,60.89
2022-10-31T19:29:56.018Z,60.86
2022-10-31T19:32:24.614Z,61.16
2022-10-31T19:34:54.078Z,61.06
2022-10-31T19:37:22.857Z,62.30
2022-10-31T19:39:52.849Z,63.49
2022-10-31T19:42:24.460Z,64.78
2022-10-31T19:44:53.770Z,64.13
2022-10-31T19:47:22.356Z,64.58
2022-10-31T19:49:51.122Z,63.57
2022-10-31T19:52:20.216Z,63.66
2022-10-31T19:54:49.269Z,63.29
2022-10-31T19:57:20.595Z,62.63
2022-10-31T20:00:00.505Z,62.29
2022-10-31T20:02:29.841Z,62.04
2022-10-31T20:05:00.026Z,62.05
2022-10-31T20:07:28.920Z,61.68
2022-10-31T20:09:58.249Z,61.50
2022-10-31T20:12:27.030Z,61.56
2022-10-31T20:14:57.515Z,61.41
2022-10-31T20:17:26.282Z,61.18
2022-10-31T20:19:55.425Z,61.19
2022-10-31T20:22:24.101Z,60.88
2022-10-31T20:24:54.136Z,60.86
2022-10-31T20:27:23.149Z,60.66
2022-10-31T20:29:51.994Z,60.97
2022-10-31T20:32:24.014Z,60.82
2022-10-31T20:34:53.385Z,60.86
2022-10-31T20:37:22.028Z,60.74
2022-10-31T20:39:54.144Z,61.11
2022-10-31T20:42:25.325Z,61.50
2022-10-31T20:44:54.148Z,61.08
2022-10-31T20:47:25.892Z,61.48
2022-10-31T20:49:55.812Z,60.91
2022-10-31T20:52:24.679Z,61.30
2022-10-31T20:55:13.870Z,61.42
2022-10-31T20:57:42.820Z,61.57
2022-10-31T21:00:12.679Z,61.36
2022-10-31T21:02:43.066Z,61.38
2022-10-31T21:05:13.751Z,61.53
2022-10-31T21:07:42.514Z,61.18
2022-10-31T21:10:15.837Z,60.99
2022-10-31T21:12:45.752Z,60.63
2022-10-31T21:15:15.726Z,60.16
2022-10-31T21:17:45.829Z,60.03
2022-10-31T21:20:14.840Z,59.74
2022-10-31T21:22:45.182Z,59.68
2022-10-31T21:25:14.085Z,59.91
2022-10-31T21:27:42.697Z,60.00
2022-10-31T21:30:11.870Z,59.81
2022-10-31T21:32:40.551Z,59.76
2022-10-31T21:35:11.558Z,60.05
2022-10-31T21:37:40.089Z,59.90
2022-10-31T21:40:10.297Z,59.68
2022-10-31T21:42:59.785Z,59.65
2022-10-31T21:45:29.232Z,60.07
2022-10-31T21:47:57.742Z,60.05
2022-10-31T21:50:27.722Z,60.39
2022-10-31T21:52:56.336Z,60.51
2022-10-31T21:55:24.395Z,61.06
2022-10-31T21:57:53.311Z,60.79
2022-10-31T22:00:22.225Z,60.91
2022-10-31T22:02:57.063Z,61.26
2022-10-31T22:05:28.742Z,61.39
2022-10-31T22:07:58.537Z,61.18
2022-10-31T22:10:27.445Z,60.97
2022-10-31T22:12:56.145Z,60.99
2022-10-31T22:15:25.128Z,60.64
2022-10-31T22:17:53.590Z,60.75
2022-10-31T22:20:24.556Z,60.40
2022-10-31T22:22:54.372Z,60.84
2022-10-31T22:25:23.132Z,60.80
2022-10-31T22:27:53.130Z,60.66
2022-10-31T22:30:21.857Z,60.78
2022-10-31T22:32:50.275Z,60.99
2022-10-31T22:35:19.124Z,60.99
2022-10-31T22:37:47.685Z,60.76
2022-10-31T22:40:18.148Z,60.41
2022-10-31T22:42:46.809Z,59.91
2022-10-31T22:45:16.324Z,59.93
2022-10-31T22:47:45.115Z,60.49
2022-10-31T22:50:13.973Z,59.93
2022-10-31T22:52:42.705Z,60.66
2022-10-31T22:55:11.407Z,59.41
2022-10-31T22:57:41.882Z,59.51
2022-10-31T23:00:11.747Z,59.17
2022-10-31T23:02:40.271Z,59.39
2022-10-31T23:05:09.447Z,58.92
2022-10-31T23:07:38.251Z,59.00
2022-10-31T23:10:07.999Z,59.25
2022-10-31T23:12:54.059Z,59.60
2022-10-31T23:15:24.195Z,60.06
2022-10-31T23:17:52.728Z,60.41
2022-10-31T23:20:21.496Z,60.21
2022-10-31T23:22:50.072Z,59.93
2022-10-31T23:25:36.672Z,60.26
2022-10-31T23:28:05.259Z,60.94
2022-10-31T23:30:35.725Z,61.42
2022-10-31T23:33:04.363Z,60.94
2022-10-31T23:35:33.247Z,60.81
2022-10-31T23:38:02.050Z,61.03
2022-10-31T23:40:30.936Z,60.92
2022-10-31T23:42:59.424Z,61.08
2022-10-31T23:45:28.619Z,60.90
2022-10-31T23:47:58.751Z,60.70
2022-10-31T23:50:27.591Z,60.90
2022-10-31T23:52:56.064Z,61.00
2022-10-31T23:55:25.331Z,60.87
2022-10-31T23:57:53.863Z,61.08
